In Rescue
 
Open Full Screen Window  High Contrast Mode
July 25, 2021 6:34 AM CDT
Weather Information
Wind Direction
  ---
Wind Speed
  00 kt (0 mph)
Wind Gust
  00 kt (0 mph)
Altimeter
30.02 in
Visibility
7 SM
Temperature
14° C
57° F
Dewpoint
12° C
54° F
Humidity
88%
1hr Rain Fall
00.00 in.
24hr Rain Fall
00.00 in.
Sky Condition
Clear
VFR

METAR KOVL 251134Z AUTO 00000KT 7SM CLR 14/12 A3002 RMK AO2

FAA Disclaimer: The data displayed is for advisory purposes only and is not to be used for flight planning or operations.